createdAt,value
2022-08-19T00:02:39.590Z,8.25
2022-08-19T00:05:52.714Z,7.37
2022-08-19T00:08:55.232Z,6.12
2022-08-19T00:11:58.759Z,6.43
2022-08-19T00:18:03.230Z,5.65
2022-08-19T00:21:09.632Z,6.13
2022-08-19T00:24:14.765Z,6.40
2022-08-19T00:27:25.619Z,6.15
2022-08-19T00:30:29.292Z,6.50
2022-08-19T00:33:35.410Z,6.47
2022-08-19T00:36:38.490Z,6.80
2022-08-19T00:39:40.703Z,6.45
2022-08-19T00:42:44.063Z,7.20
2022-08-19T00:45:46.198Z,7.30
2022-08-19T00:48:48.721Z,6.77
2022-08-19T00:51:54.787Z,6.18
2022-08-19T00:54:59.192Z,6.37
2022-08-19T00:58:09.006Z,7.15
2022-08-19T01:01:11.870Z,6.57
2022-08-19T01:04:14.591Z,6.50
2022-08-19T01:07:19.736Z,7.18
2022-08-19T01:10:26.186Z,6.60
2022-08-19T01:13:44.509Z,7.97
2022-08-19T01:16:55.419Z,7.10
2022-08-19T01:19:57.875Z,7.32
2022-08-19T01:23:00.198Z,6.68
2022-08-19T01:26:02.620Z,6.62
2022-08-19T01:29:05.235Z,6.85
2022-08-19T01:32:33.226Z,7.40
2022-08-19T01:35:36.780Z,7.28
2022-08-19T01:38:44.122Z,6.90
2022-08-19T01:41:47.973Z,7.53
2022-08-19T01:44:50.859Z,6.78
2022-08-19T01:48:01.277Z,6.28
2022-08-19T01:51:05.660Z,7.00
2022-08-19T01:54:09.817Z,7.10
2022-08-19T01:57:15.326Z,7.32
2022-08-19T02:00:20.065Z,6.87
2022-08-19T02:03:23.699Z,8.32
2022-08-19T02:06:26.993Z,7.80
2022-08-19T02:09:29.565Z,6.20
2022-08-19T02:12:31.724Z,6.97
2022-08-19T02:15:34.187Z,8.10
2022-08-19T02:18:36.487Z,7.47
2022-08-19T02:21:39.089Z,7.85
2022-08-19T02:24:41.448Z,8.05
2022-08-19T02:27:44.487Z,8.02
2022-08-19T02:30:48.149Z,6.87
2022-08-19T02:33:51.425Z,7.37
2022-08-19T02:36:53.569Z,6.72
2022-08-19T02:39:56.380Z,7.07
2022-08-19T02:42:58.507Z,8.30
2022-08-19T02:46:01.289Z,7.53
2022-08-19T02:49:07.274Z,8.13
2022-08-19T02:52:09.905Z,8.57
2022-08-19T02:55:12.072Z,7.60
2022-08-19T02:58:16.494Z,8.23
2022-08-19T03:01:43.009Z,7.85
2022-08-19T03:04:45.751Z,7.80
2022-08-19T03:07:47.891Z,7.93
2022-08-19T03:10:50.287Z,8.63
2022-08-19T03:13:54.393Z,7.55
2022-08-19T03:16:56.794Z,7.65
2022-08-19T03:19:58.940Z,8.00
2022-08-19T03:23:01.362Z,8.27
2022-08-19T03:26:15.884Z,7.65
2022-08-19T03:29:30.799Z,7.43
2022-08-19T03:32:33.848Z,8.32
2022-08-19T03:35:40.030Z,7.97
2022-08-19T03:38:56.412Z,8.57
2022-08-19T03:42:45.452Z,7.62
2022-08-19T03:45:25.481Z,8.13
2022-08-19T03:48:27.954Z,7.83
2022-08-19T03:51:32.923Z,7.10
2022-08-19T03:54:36.167Z,8.57
2022-08-19T03:57:38.300Z,7.30
2022-08-19T04:00:43.844Z,8.33
2022-08-19T04:03:47.467Z,8.18
2022-08-19T04:06:50.183Z,8.10
2022-08-19T04:09:52.978Z,7.87
2022-08-19T04:12:55.166Z,11.18
2022-08-19T04:15:57.720Z,9.07
2022-08-19T04:19:01.807Z,7.53
2022-08-19T04:22:05.065Z,7.53
2022-08-19T04:25:07.438Z,7.25
2022-08-19T04:28:12.179Z,7.28
2022-08-19T04:31:20.460Z,8.07
2022-08-19T04:34:27.657Z,8.38
2022-08-19T04:37:35.058Z,7.25
2022-08-19T04:41:02.059Z,7.40
2022-08-19T04:44:04.664Z,7.22
2022-08-19T04:47:11.347Z,6.93
2022-08-19T04:50:13.662Z,7.30
2022-08-19T04:53:16.278Z,8.77
2022-08-19T04:56:22.686Z,8.03
2022-08-19T04:59:25.045Z,7.68
2022-08-19T05:02:27.162Z,6.20
2022-08-19T05:05:29.579Z,6.37
2022-08-19T05:08:47.858Z,6.68
2022-08-19T05:11:53.826Z,9.07
2022-08-19T05:14:57.743Z,7.07
2022-08-19T05:18:18.625Z,7.53
2022-08-19T05:21:42.818Z,7.85
2022-08-19T05:25:09.388Z,6.37
2022-08-19T05:28:07.505Z,6.65
2022-08-19T05:31:09.945Z,7.22
2022-08-19T05:34:20.282Z,6.80
2022-08-19T05:37:23.184Z,6.45
2022-08-19T05:40:25.300Z,7.00
2022-08-19T05:43:29.257Z,5.75
2022-08-19T05:46:31.402Z,6.82
2022-08-19T05:49:37.069Z,5.95
2022-08-19T05:52:54.256Z,6.50
2022-08-19T05:55:56.682Z,5.62
2022-08-19T05:59:02.084Z,6.37
2022-08-19T06:02:07.543Z,6.18
2022-08-19T06:05:10.709Z,6.82
2022-08-19T06:08:12.880Z,7.25
2022-08-19T06:11:35.826Z,5.60
2022-08-19T06:14:41.693Z,5.78
2022-08-19T06:17:47.756Z,6.47
2022-08-19T06:20:58.445Z,6.00
2022-08-19T06:24:01.279Z,6.00
2022-08-19T06:27:06.609Z,6.57
2022-08-19T06:30:09.611Z,5.87
2022-08-19T06:36:32.327Z,6.37
2022-08-19T06:39:37.572Z,5.97
2022-08-19T06:42:40.288Z,6.50
2022-08-19T06:45:53.321Z,5.03
2022-08-19T06:48:56.495Z,5.43
2022-08-19T06:51:59.515Z,4.97
2022-08-19T06:55:06.550Z,5.53
2022-08-19T06:58:10.193Z,5.68
2022-08-19T07:01:12.708Z,4.62
2022-08-19T07:04:18.980Z,4.87
2022-08-19T07:07:23.200Z,5.50
2022-08-19T07:10:26.214Z,5.07
2022-08-19T07:13:28.636Z,5.68
2022-08-19T07:16:31.106Z,5.43
2022-08-19T07:19:35.163Z,5.15
2022-08-19T07:22:41.541Z,6.32
2022-08-19T07:25:44.572Z,6.03
2022-08-19T07:28:51.524Z,5.47
2022-08-19T07:31:57.387Z,6.25
2022-08-19T07:35:20.996Z,4.82
2022-08-19T07:41:31.695Z,5.27
2022-08-19T07:44:35.557Z,5.50
2022-08-19T07:47:49.020Z,5.53
2022-08-19T07:50:58.961Z,5.65
2022-08-19T07:54:01.621Z,5.87
2022-08-19T07:57:04.988Z,5.93
2022-08-19T08:00:08.208Z,4.60
2022-08-19T08:03:16.633Z,5.20
2022-08-19T08:06:38.153Z,5.03
2022-08-19T08:09:42.916Z,5.37
2022-08-19T08:13:09.342Z,5.03
2022-08-19T08:16:14.996Z,5.37
2022-08-19T08:19:25.610Z,4.85
2022-08-19T08:22:46.742Z,5.65
2022-08-19T08:25:49.941Z,4.65
2022-08-19T08:28:53.290Z,5.28
2022-08-19T08:31:59.630Z,5.72
2022-08-19T08:35:02.424Z,5.30
2022-08-19T08:38:05.272Z,4.43
2022-08-19T08:41:20.203Z,5.12
2022-08-19T08:44:38.123Z,4.43
2022-08-19T08:47:42.483Z,4.43
2022-08-19T08:50:48.545Z,4.72
2022-08-19T08:53:55.960Z,4.03
2022-08-19T08:56:59.412Z,4.75
2022-08-19T09:00:07.213Z,5.18
2022-08-19T09:03:31.481Z,4.12
2022-08-19T09:06:37.793Z,5.32
2022-08-19T09:09:49.522Z,4.22
2022-08-19T09:13:10.375Z,4.62
2022-08-19T09:16:21.767Z,4.18
2022-08-19T09:19:31.478Z,4.97
2022-08-19T09:22:37.200Z,4.40
2022-08-19T09:25:41.097Z,5.53
2022-08-19T09:28:48.799Z,4.82
2022-08-19T09:31:51.152Z,4.75
2022-08-19T09:34:55.646Z,5.00
2022-08-19T09:38:00.609Z,5.60
2022-08-19T09:41:05.685Z,4.20
2022-08-19T09:44:09.269Z,4.90
2022-08-19T09:47:14.712Z,4.72
2022-08-19T09:50:17.815Z,4.25
2022-08-19T09:53:23.445Z,4.03
2022-08-19T09:56:28.921Z,4.65
2022-08-19T09:59:31.367Z,4.55
2022-08-19T10:02:36.355Z,4.87
2022-08-19T10:05:54.475Z,5.90
2022-08-19T10:08:57.235Z,4.45
2022-08-19T10:12:02.580Z,4.60
2022-08-19T10:15:07.098Z,4.32
2022-08-19T10:18:09.804Z,4.80
2022-08-19T10:21:18.680Z,4.50
2022-08-19T10:24:21.457Z,5.10
2022-08-19T10:27:24.214Z,5.05
2022-08-19T10:30:28.829Z,5.00
2022-08-19T10:33:39.213Z,4.25
2022-08-19T10:36:56.378Z,5.75
2022-08-19T10:40:04.511Z,5.28
2022-08-19T10:43:07.431Z,4.07
2022-08-19T10:46:16.436Z,5.00
2022-08-19T10:49:20.166Z,4.47
2022-08-19T10:52:34.938Z,4.95
2022-08-19T10:55:59.630Z,4.78
2022-08-19T10:59:04.274Z,4.53
2022-08-19T11:02:10.813Z,5.80
2022-08-19T11:05:14.430Z,4.30
2022-08-19T11:08:23.074Z,5.60
2022-08-19T11:11:26.544Z,4.37
2022-08-19T11:14:29.088Z,6.00
2022-08-19T11:17:36.907Z,5.68
2022-08-19T11:20:39.287Z,7.18
2022-08-19T11:29:46.508Z,5.80
2022-08-19T11:32:49.659Z,5.65
2022-08-19T11:35:51.843Z,4.85
2022-08-19T11:38:54.743Z,3.90
2022-08-19T11:41:59.177Z,4.37
2022-08-19T11:45:01.788Z,4.12
2022-08-19T11:48:04.499Z,4.45
2022-08-19T11:51:10.349Z,5.22
2022-08-19T11:54:15.120Z,5.90
2022-08-19T11:57:17.970Z,5.55
2022-08-19T12:00:20.344Z,5.75
2022-08-19T12:03:23.196Z,5.87
2022-08-19T12:06:30.014Z,5.37
2022-08-19T12:09:33.220Z,5.62
2022-08-19T12:12:35.571Z,6.78
2022-08-19T12:15:39.285Z,7.22
2022-08-19T12:18:47.223Z,8.23
2022-08-19T12:21:50.332Z,8.82
2022-08-19T12:24:54.197Z,7.47
2022-08-19T12:27:57.596Z,7.35
2022-08-19T12:31:00.451Z,8.35
2022-08-19T12:34:04.863Z,7.72
2022-08-19T12:37:07.467Z,8.85
2022-08-19T12:40:12.675Z,8.48
2022-08-19T12:43:16.568Z,9.60
2022-08-19T12:46:20.425Z,11.15
2022-08-19T12:49:52.514Z,10.60
2022-08-19T12:52:49.043Z,12.95
2022-08-19T12:55:58.717Z,11.15
2022-08-19T12:59:05.715Z,13.00
2022-08-19T13:02:08.758Z,13.00
2022-08-19T13:05:14.150Z,13.73
2022-08-19T13:08:16.466Z,11.73
2022-08-19T13:11:21.512Z,12.02
2022-08-19T13:14:23.968Z,11.95
2022-08-19T13:17:26.382Z,11.55
2022-08-19T13:20:28.693Z,9.60
2022-08-19T13:23:31.520Z,8.52
2022-08-19T13:26:33.907Z,6.87
2022-08-19T13:29:55.043Z,5.10
2022-08-19T13:33:12.366Z,4.35
2022-08-19T13:36:14.737Z,4.95
2022-08-19T13:39:17.305Z,4.05
2022-08-19T13:42:20.202Z,4.85
2022-08-19T13:45:25.330Z,4.62
2022-08-19T13:48:28.112Z,5.40
2022-08-19T13:51:30.288Z,4.62
2022-08-19T13:54:33.414Z,4.93
2022-08-19T13:57:36.240Z,4.87
2022-08-19T14:00:45.538Z,4.37
2022-08-19T14:03:48.324Z,8.20
2022-08-19T14:06:50.461Z,4.15
2022-08-19T14:09:52.844Z,5.93
2022-08-19T14:12:57.262Z,4.05
2022-08-19T14:15:59.650Z,4.07
2022-08-19T14:19:02.006Z,3.70
2022-08-19T14:22:06.246Z,3.25
2022-08-19T14:25:11.405Z,4.00
2022-08-19T14:28:13.856Z,3.85
2022-08-19T14:31:19.822Z,4.12
2022-08-19T14:34:23.112Z,3.50
2022-08-19T14:37:25.286Z,3.78
2022-08-19T14:40:30.460Z,4.10
2022-08-19T14:43:32.740Z,3.60
2022-08-19T14:46:35.280Z,3.47
2022-08-19T14:49:41.193Z,4.18
2022-08-19T14:52:47.370Z,3.10
2022-08-19T14:55:49.612Z,3.75
2022-08-19T14:58:52.861Z,4.25
2022-08-19T15:01:55.067Z,3.28
2022-08-19T15:04:58.093Z,3.10
2022-08-19T15:08:04.616Z,1.70
2022-08-19T15:11:15.854Z,2.58
2022-08-19T15:14:18.012Z,3.20
2022-08-19T15:17:20.445Z,1.92
2022-08-19T15:20:23.461Z,2.20
2022-08-19T15:23:26.314Z,2.10
2022-08-19T15:26:28.998Z,1.95
2022-08-19T15:32:33.529Z,2.00
2022-08-19T15:35:35.927Z,2.15
2022-08-19T15:38:41.111Z,2.30
2022-08-19T15:41:46.558Z,2.40
2022-08-19T15:44:48.746Z,1.62
2022-08-19T15:47:52.854Z,2.05
2022-08-19T15:50:54.969Z,2.80
2022-08-19T15:53:59.610Z,1.62
2022-08-19T15:57:20.370Z,2.85
2022-08-19T16:00:41.177Z,1.83
2022-08-19T16:04:02.055Z,1.98
2022-08-19T16:07:04.491Z,3.22
2022-08-19T16:10:25.889Z,1.70
2022-08-19T16:13:29.689Z,1.90
2022-08-19T16:16:34.169Z,2.00
2022-08-19T16:19:36.366Z,3.08
2022-08-19T16:22:40.146Z,2.10
2022-08-19T16:25:42.297Z,2.65
2022-08-19T16:28:45.279Z,1.90
2022-08-19T16:31:50.925Z,1.73
2022-08-19T16:34:53.650Z,2.30
2022-08-19T16:37:55.960Z,1.95
2022-08-19T16:41:00.502Z,3.50
2022-08-19T16:44:02.957Z,2.30
2022-08-19T16:47:05.497Z,2.30
2022-08-19T16:50:08.009Z,2.95
2022-08-19T16:53:10.399Z,3.60
2022-08-19T16:56:12.781Z,2.87
2022-08-19T16:59:16.590Z,2.60
2022-08-19T17:02:20.432Z,3.45
2022-08-19T17:05:24.677Z,3.87
2022-08-19T17:08:26.856Z,3.35
2022-08-19T17:11:32.798Z,3.45
2022-08-19T17:14:34.905Z,2.95
2022-08-19T17:17:37.361Z,2.75
2022-08-19T17:20:41.402Z,3.47
2022-08-19T17:23:44.234Z,3.45
2022-08-19T17:26:46.540Z,3.50
2022-08-19T17:29:49.194Z,4.47
2022-08-19T17:32:51.833Z,3.50
2022-08-19T17:35:54.248Z,3.55
2022-08-19T17:38:59.064Z,2.97
2022-08-19T17:42:02.785Z,2.58
2022-08-19T17:45:05.997Z,4.15
2022-08-19T17:51:25.590Z,2.65
2022-08-19T17:54:28.661Z,3.12
2022-08-19T17:57:41.178Z,2.53
2022-08-19T18:00:54.001Z,3.72
2022-08-19T18:03:57.058Z,3.58
2022-08-19T18:07:00.998Z,3.03
2022-08-19T18:10:03.640Z,4.35
2022-08-19T18:13:17.417Z,2.37
2022-08-19T18:16:22.104Z,3.05
2022-08-19T18:19:25.586Z,2.83
2022-08-19T18:22:38.776Z,2.78
2022-08-19T18:25:43.713Z,3.80
2022-08-19T18:28:49.687Z,2.90
2022-08-19T18:31:54.021Z,3.55
2022-08-19T18:34:56.649Z,2.30
2022-08-19T18:38:01.107Z,3.17
2022-08-19T18:41:22.700Z,3.92
2022-08-19T18:44:43.453Z,4.07
2022-08-19T18:48:04.468Z,2.92
2022-08-19T18:51:07.462Z,2.80
2022-08-19T18:54:10.403Z,3.00
2022-08-19T18:57:13.596Z,3.53
2022-08-19T19:00:16.644Z,3.97
2022-08-19T19:03:18.769Z,4.07
2022-08-19T19:06:27.570Z,4.47
2022-08-19T19:09:29.868Z,4.18
2022-08-19T19:12:36.443Z,3.80
2022-08-19T19:15:39.477Z,4.87
2022-08-19T19:21:47.570Z,4.32
2022-08-19T19:24:51.276Z,3.90
2022-08-19T19:34:02.623Z,2.87
2022-08-19T19:37:05.279Z,3.63
2022-08-19T19:40:07.791Z,2.92
2022-08-19T19:43:10.334Z,4.90
2022-08-19T19:46:13.847Z,4.78
2022-08-19T19:49:16.535Z,3.47
2022-08-19T19:52:19.494Z,2.95
2022-08-19T19:55:22.345Z,3.67
2022-08-19T19:58:29.298Z,3.30
2022-08-19T20:01:31.830Z,3.00
2022-08-19T20:04:37.335Z,3.53
2022-08-19T20:07:59.245Z,3.28
2022-08-19T20:11:03.902Z,4.45
2022-08-19T20:14:11.623Z,4.03
2022-08-19T20:17:14.046Z,4.57
2022-08-19T20:20:17.939Z,5.32
2022-08-19T20:23:21.910Z,5.78
2022-08-19T20:26:32.245Z,5.53
2022-08-19T20:29:39.628Z,6.32
2022-08-19T20:32:43.788Z,6.28
2022-08-19T20:35:49.483Z,6.30
2022-08-19T20:38:52.091Z,7.80
2022-08-19T20:41:56.356Z,6.55
2022-08-19T20:44:58.761Z,6.97
2022-08-19T20:48:03.113Z,7.28
2022-08-19T20:51:06.727Z,6.32
2022-08-19T20:54:09.161Z,6.25
2022-08-19T20:57:11.290Z,7.15
2022-08-19T21:00:14.914Z,8.13
2022-08-19T21:06:22.114Z,6.97
2022-08-19T21:09:25.342Z,7.60
2022-08-19T21:12:28.138Z,7.22
2022-08-19T21:15:30.703Z,7.63
2022-08-19T21:18:35.362Z,7.35
2022-08-19T21:21:37.549Z,8.20
2022-08-19T21:24:40.053Z,6.60
2022-08-19T21:27:42.311Z,9.30
2022-08-19T21:30:44.731Z,5.40
2022-08-19T21:33:46.896Z,8.02
2022-08-19T21:36:49.314Z,6.22
2022-08-19T21:39:51.504Z,5.95
2022-08-19T21:42:54.293Z,6.70
2022-08-19T21:45:56.423Z,6.50
2022-08-19T21:48:59.111Z,6.50
2022-08-19T21:52:01.931Z,11.95
2022-08-19T21:55:05.389Z,6.35
2022-08-19T21:58:07.532Z,6.57
2022-08-19T22:01:10.048Z,6.00
2022-08-19T22:04:12.496Z,7.23
2022-08-19T22:07:14.970Z,7.70
2022-08-19T22:10:18.325Z,7.45
2022-08-19T22:13:22.007Z,6.55
2022-08-19T22:16:24.623Z,7.53
2022-08-19T22:19:29.235Z,6.82
2022-08-19T22:22:33.102Z,7.85
2022-08-19T22:25:39.617Z,7.43
2022-08-19T22:28:42.776Z,8.45
2022-08-19T22:31:45.094Z,8.38
2022-08-19T22:34:47.510Z,7.33
2022-08-19T22:37:51.125Z,8.07
2022-08-19T22:40:54.242Z,8.57
2022-08-19T22:43:56.491Z,7.85
2022-08-19T22:46:58.935Z,7.73
2022-08-19T22:50:01.181Z,9.35
2022-08-19T22:53:07.178Z,8.33
2022-08-19T22:56:15.060Z,8.75
2022-08-19T22:59:17.956Z,9.40
2022-08-19T23:02:21.496Z,7.97
2022-08-19T23:05:28.956Z,7.62
2022-08-19T23:08:31.476Z,7.95
2022-08-19T23:11:41.550Z,7.55
2022-08-19T23:14:44.449Z,7.90
2022-08-19T23:17:46.867Z,7.35
2022-08-19T23:20:49.178Z,6.70
2022-08-19T23:23:51.672Z,7.30
2022-08-19T23:27:12.431Z,6.47
2022-08-19T23:30:26.739Z,6.90
2022-08-19T23:33:46.503Z,6.70
2022-08-19T23:36:54.145Z,6.47
2022-08-19T23:39:56.329Z,6.37
2022-08-19T23:42:58.850Z,6.93
2022-08-19T23:46:10.570Z,7.07
2022-08-19T23:49:14.914Z,6.20
2022-08-19T23:52:17.030Z,6.68
2022-08-19T23:55:21.689Z,7.35
2022-08-19T23:58:24.377Z,7.68
